FLIGHT INFORMATION
United Parcel Service (UPS)

UPS519

At Arrival Gate

KLAX
 KSDF
DATE: 2020-05-22
GATE: S2
GATE DEPARTURE: 14:45
TAKEOFF: 14:51
DATE: 2020-05-22
GATE:  -
LANDING: 18:20
GATE ARRIVAL: 18:25
FLIGHT DATA
Crew: STEVEN PERRY
Speed: 500 kts Altitude: 39000 ft
Stage Length: 1598 nm
Route: KLAX SLI TUSTI HEMET TRM AVRRY LANCY DRK ABQ ACH TCC PNH KF33A IFI KM36G ARG MYTON MBELL BRBON BULCO HAUGN CURNL SPYRS RW17R
Block Time: 3.7 Flight Time: 3.5
Fuel Used: 70225 LB
TRACK DATA
50000 FT1000 KTAltitudeSpeed
AIRCRAFT INFORMATION
Aircraft Type: B748F
Registration: N618UP
SELCAL:  MSN/LN: 64264 / 1556
Operator: UNITED PARCEL SERVICE (UPS)
Flights: 2 Block Time: 6 Flight Time: 5.7
Fuel Used: 185602 LB
  • DEPARTURE INFORMATION
    Date: 2020-05-22
    Airport: KLAX
    Gate: S2
    Gate Departure: 14:45
    Takeoff: 14:51
    ARRIVAL INFORMATION
    Date: 2020-05-22
    Airport: KSDF
    Gate:  -
    Landing: 18:20
    Gate Arrival: 18:25
  • FLIGHT DATA
    Crew: STEVEN PERRY
    Speed: 500 kts Altitude: 39000 ft
    Stage Length: 863 nm
    Route: KLAX SLI TUSTI HEMET TRM AVRRY LANCY DRK ABQ ACH TCC PNH KF33A IFI KM36G ARG MYTON MBELL BRBON BULCO HAUGN CURNL SPYRS RW17R
    Block Time: 3.7 Flight Time: 3.5
    Fuel Used: 70225 LB
  • AIRCRAFT INFORMATION
    Aircraft Type: B748F
    Registration: N618UP
    SELCAL:  MSN/LN: 64264 / 1556
    Operator: United Parcel Service (UPS)
    Flights: 2 Block Time: 6 Flight Time: 5.7
    Fuel Used: 185602 LB

DATALINK LOG | Newest first | Current as of: 2020-06-02 12:02:12
LABEL ID SEQUENCE CONTENT Dn/Up
QD261618:25 24.4▼ Dn
QC211118:20▼ Dn
2U4121KSDF 221456Z 00000KT 10SM FEW020 OVC090 21/16 A3003 RMK AO2 SLP165 T02110156 56004▲ Up
5U4115KSDF 221933Z 22005KT 10SM BKN040 21/16 A3003▲ Up
2S4138KSDF▼ Dn
5S4137KSDF▼ Dn
464036/OV DRK /TM 1540 /FL390 /TP B748 /TA -59 /RM NONE▼ Dn
DM483026LANCY 15:21z FL389 DRK 15:31z ABQ M0.84 74.7 -28 271/69 KSDF 18:08z▼ Dn
UM0 UM192127UNABLE. MAINTAIN ASSIGNED ALTITUDE▲ Up
DM532117WHEN CAN WE EXPECT HIGHER LEVEL▼ Dn
UM0 UM191925UNABLE. MAINTAIN ASSIGNED ALTITUDE▲ Up
DM61915REQUEST FL 390▼ Dn
UM1061521MAINTAIN 265 KNOTS▲ Up
DM181511REQUEST 265 KNOTS DUE TO A/C PERF▼ Dn
UM0 UM960168UNABLE. CONTINUE PRESENT HEADING▲ Up
DM220158REQUEST DIRECT TO TRM DUE TO A/C PERF▼ Dn
QB514914:51▼ Dn
QA454414:45 94.7▼ Dn
A33535CLEARED TO KSDF VIA LAXX1 TRM AVRRY LANCY J134 DRK ABQ ACH TCC J6 PNH KF33A IFI KM36G ARG MYTON MBELL4. SQUAWK 7437.▲ Up
Q03434[LINK ACK]▲ Up
Q03434[LINK TEST]▼ Dn


AIRCRAFT HISTORY
FLIGHT DATE FLIGHT NUMBER ORIGIN DESTINATION ROUTE BLOCK TIME FLIGHT TIME FUEL USED (LB) PILOT
2020-05-22UPS519KLAX KSDF KLAX SLI TUSTI HEMET TRM AVRRY LANCY DRK ABQ ACH TCC PNH KF33A IFI KM36G ARG MYTON MBELL BRBON BULCO HAUGN CURNL SPYRS RW17R3.73.570225Steven Perry
2020-05-20UPS520PHNL KLAX PHNL MKK BLUSH SESXI ALICA EBBER ELOYI ERROT ETNIC ETECO EDSEL EDTOO ELKEY KLAX54.7115377Michael Roth